Dart — OUOV2 — position and weather

sailwx.info

Track history (hours):
 
Tides and Currents Weather Stations Pressure Air Temp Water Temp Dewpoint Dewpoint Depression Visibility Wind Speed Wind Dir Waves Ship Positions

Dart

Last reported at 2017-Jan-24 01:23 UTC. Time now 2017-Jan-24 05:12 UTC.
Position N 58°51' E 004°24'.

Length 66 m; draft 4 m.

Type: Ship. MMSI: 219416000.

Date/timePositionNaut miles runAvg speedWind from/ knotsBaromVisibWave heightAir tempDewpointWater temp
2017-Jan-24 01:23N 58°51' E 004°24'8 9.8
2017-Jan-24 00:33N 58°55' E 004°38'1010.0
2017-Jan-23 23:34N 58°59' E 004°55'1010.1
2017-Jan-23 22:33N 59°04' E 005°13'9 9.4
2017-Jan-23 21:33N 59°13' E 005°20'34 5.6
2017-Jan-23 15:31N 59°46' E 005°20'7 0.4
2017-Jan-22 19:30N 59°50' E 005°33'11 9.9
2017-Jan-22 18:20N 59°40' E 005°22'22 9.8
2017-Jan-22 16:05N 59°18' E 005°20'611.3
2017-Jan-22 15:34N 59°12' E 005°21'1010.2
2017-Jan-22 14:33N 59°04' E 005°33'8 7.7
2017-Jan-22 13:32N 58°56' E 005°35'0 0.0
2017-Jan-22 12:32N 58°56' E 005°35'0 0.0
2017-Jan-22 11:32N 58°56' E 005°35'0 0.0
2017-Jan-22 10:32N 58°56' E 005°35'0 0.0
2017-Jan-22 09:32N 58°56' E 005°35'0 0.0
2017-Jan-22 08:32N 58°56' E 005°35'0 0.0
2017-Jan-22 07:32N 58°56' E 005°35'0 0.0
2017-Jan-22 06:32N 58°56' E 005°35'0 0.0
2017-Jan-22 05:32N 58°56' E 005°35'0 0.0
2017-Jan-22 04:32N 58°56' E 005°35'0 0.0
2017-Jan-22 03:32N 58°56' E 005°35'0 0.0
2017-Jan-22 02:32N 58°56' E 005°35'0 0.0
2017-Jan-22 01:32N 58°56' E 005°35'0 0.0
2017-Jan-22 00:32N 58°56' E 005°35'0 0.0
2017-Jan-21 23:32N 58°56' E 005°35'0 0.0
2017-Jan-21 22:32N 58°56' E 005°35'0 0.0
2017-Jan-21 21:32N 58°56' E 005°35'0 0.0
2017-Jan-21 20:32N 58°56' E 005°35'0 0.0
2017-Jan-21 19:32N 58°56' E 005°35'0 0.0
2017-Jan-21 18:32N 58°56' E 005°35'0 0.0
2017-Jan-21 17:32N 58°56' E 005°35'0 0.0
2017-Jan-21 16:32N 58°56' E 005°35'0 0.0
2017-Jan-21 15:32N 58°56' E 005°35'0 0.0
2017-Jan-21 14:32N 58°56' E 005°35'0 0.0
2017-Jan-21 13:33N 58°56' E 005°35'0 0.1
2017-Jan-21 12:32N 58°56' E 005°36'0 0.0
2017-Jan-21 11:32N 58°56' E 005°36'0 0.0
2017-Jan-21 10:32N 58°56' E 005°36'0 0.0
2017-Jan-21 09:32N 58°56' E 005°36'0 0.0
2017-Jan-21 08:32N 58°56' E 005°36'0 0.0
2017-Jan-21 07:33N 58°56' E 005°36'8 8.0
2017-Jan-21 06:34N 59°03' E 005°32'9 9.1
2017-Jan-21 05:33N 59°10' E 005°20'211 6.9
2017-Jan-19 23:04N 62°39' E 006°24'4 7.8
2017-Jan-19 22:34N 62°42' E 006°29'9 8.7
2017-Jan-19 21:34N 62°50' E 006°39'10 8.9
2017-Jan-19 20:29N 62°58' E 006°51'7 8.1
2017-Jan-19 19:34N 63°01' E 007°06'8 8.5
2017-Jan-19 18:33N 63°04' E 007°23'8 8.2
2017-Jan-19 17:33N 63°08' E 007°39'4 3.6
2017-Jan-19 16:32N 63°06' E 007°47'0 0.0
2017-Jan-19 15:32N 63°06' E 007°47'0 0.0
2017-Jan-19 14:32N 63°06' E 007°47'0 0.0
2017-Jan-19 13:32N 63°06' E 007°47'0 0.0
2017-Jan-19 12:32N 63°06' E 007°47'0 0.0
2017-Jan-19 11:32N 63°06' E 007°47'0 0.0
2017-Jan-19 10:32N 63°06' E 007°47'0 0.0
2017-Jan-19 09:32N 63°06' E 007°47'0 0.0
2017-Jan-19 08:32N 63°06' E 007°47'0 0.0
2017-Jan-19 07:32N 63°06' E 007°47'0 0.0
2017-Jan-19 06:32N 63°06' E 007°47'0 0.0
2017-Jan-19 05:32N 63°06' E 007°47'0 0.0
2017-Jan-19 04:32N 63°06' E 007°47'0 0.0
2017-Jan-19 03:32N 63°06' E 007°47'0 0.0
2017-Jan-19 02:32N 63°06' E 007°47'3 2.9
2017-Jan-19 01:33N 63°07' E 007°41'1110.7
2017-Jan-19 00:34N 63°03' E 007°19'1211.6
2017-Jan-18 23:33N 62°59' E 006°55'1111.6
2017-Jan-18 22:33N 62°50' E 006°39'1211.4
2017-Jan-18 21:32N 62°40' E 006°26'178 8.5
2017-Jan-18 00:33N 59°44' E 005°29'1410.4
2017-Jan-17 23:15N 59°33' E 005°13'16 8.4
2017-Jan-17 21:22N 59°18' E 005°20'910.8
2017-Jan-17 20:33N 59°09' E 005°21'9 9.3
2017-Jan-17 19:34N 59°01' E 005°12'1010.3
2017-Jan-17 18:33N 58°53' E 004°59'1110.4
2017-Jan-17 17:32N 58°45' E 004°46'20910.8
2017-Jan-16 22:11N 57°32' W 001°25'711.2
2017-Jan-16 21:33N 57°29' W 001°37'5 5.4
2017-Jan-16 20:34N 57°30' W 001°47'0 0.0
2017-Jan-16 19:34N 57°30' W 001°47'0 0.0
2017-Jan-16 18:34N 57°30' W 001°47'0 0.0
2017-Jan-16 17:34N 57°30' W 001°47'0 0.0
2017-Jan-16 16:31N 57°30' W 001°47'0 0.0
2017-Jan-16 15:33N 57°30' W 001°47'6 5.6
2017-Jan-16 14:33N 57°29' W 001°37'210 9.5
2017-Jan-15 16:21N 58°41' E 004°37'810.1
2017-Jan-15 15:34N 58°44' E 004°52'1010.2
2017-Jan-15 14:34N 58°47' E 005°10'1010.2
2017-Jan-15 13:34N 58°51' E 005°28'6 5.1
2017-Jan-15 12:25N 58°55' E 005°36'0 0.0
2017-Jan-15 11:31N 58°55' E 005°36'0 0.0
2017-Jan-15 10:31N 58°55' E 005°36'0 0.0
2017-Jan-15 09:31N 58°55' E 005°36'0 0.0
2017-Jan-15 08:31N 58°55' E 005°36'0 0.0
2017-Jan-15 07:31N 58°55' E 005°36'0 0.0
2017-Jan-15 06:28N 58°55' E 005°36'0 0.0
2017-Jan-15 05:31N 58°55' E 005°36'0 0.0
2017-Jan-15 04:31N 58°55' E 005°36'0 0.0
2017-Jan-15 03:31N 58°55' E 005°36'0 0.0
2017-Jan-15 02:31N 58°55' E 005°36'0 0.0
2017-Jan-15 01:31N 58°55' E 005°36'0 0.0
2017-Jan-15 00:31N 58°55' E 005°36'0 0.0
2017-Jan-14 23:31N 58°55' E 005°36'0 0.0
2017-Jan-14 22:31N 58°55' E 005°36'0 0.0
2017-Jan-14 21:31N 58°55' E 005°36'0 0.0
2017-Jan-14 20:31N 58°55' E 005°36'0 0.3
2017-Jan-14 19:33N 58°56' E 005°36'0 0.0
2017-Jan-14 18:33N 58°56' E 005°36'0 0.0
2017-Jan-14 17:33N 58°56' E 005°36'0 0.0
2017-Jan-14 16:33N 58°56' E 005°36'0 0.0
2017-Jan-14 15:33N 58°56' E 005°36'0 0.0
2017-Jan-14 14:33N 58°56' E 005°36'0 0.0
2017-Jan-14 13:33N 58°56' E 005°36'0 0.4
2017-Jan-14 12:34N 58°55' E 005°35'6 6.5
2017-Jan-14 11:33N 59°02' E 005°38'7 6.8
2017-Jan-14 10:34N 58°57' E 005°47'4 4.0
2017-Jan-14 09:31N 58°53' E 005°45'0 0.0
2017-Jan-14 08:31N 58°53' E 005°45'0 0.0
2017-Jan-14 07:31N 58°53' E 005°45'0 0.0
2017-Jan-14 06:31N 58°53' E 005°45'0 0.0
2017-Jan-14 05:31N 58°53' E 005°45'0 0.0
2017-Jan-14 04:31N 58°53' E 005°45'0 0.0
2017-Jan-14 03:31N 58°53' E 005°45'  
Track history (hours):
 
Tides and Currents Weather Stations Pressure Air Temp Water Temp Dewpoint Dewpoint Depression Visibility Wind Speed Wind Dir Waves Ship Positions

Dart

Last reported at 2017-Jan-24 01:23 UTC. Time now 2017-Jan-24 05:12 UTC.
Position N 58°51' E 004°24'.

Length 66 m; draft 4 m.

Type: Ship. MMSI: 219416000.

Date/timePositionNaut miles runAvg speedWind from/ knotsBaromVisibWave heightAir tempDewpointWater temp
2017-Jan-24 01:23N 58°51' E 004°24'8 9.8
2017-Jan-24 00:33N 58°55' E 004°38'1010.0
2017-Jan-23 23:34N 58°59' E 004°55'1010.1
2017-Jan-23 22:33N 59°04' E 005°13'9 9.4
2017-Jan-23 21:33N 59°13' E 005°20'34 5.6
2017-Jan-23 15:31N 59°46' E 005°20'7 0.4
2017-Jan-22 19:30N 59°50' E 005°33'11 9.9
2017-Jan-22 18:20N 59°40' E 005°22'22 9.8
2017-Jan-22 16:05N 59°18' E 005°20'611.3
2017-Jan-22 15:34N 59°12' E 005°21'1010.2
2017-Jan-22 14:33N 59°04' E 005°33'8 7.7
2017-Jan-22 13:32N 58°56' E 005°35'0 0.0
2017-Jan-22 12:32N 58°56' E 005°35'0 0.0
2017-Jan-22 11:32N 58°56' E 005°35'0 0.0
2017-Jan-22 10:32N 58°56' E 005°35'0 0.0
2017-Jan-22 09:32N 58°56' E 005°35'0 0.0
2017-Jan-22 08:32N 58°56' E 005°35'0 0.0
2017-Jan-22 07:32N 58°56' E 005°35'0 0.0
2017-Jan-22 06:32N 58°56' E 005°35'0 0.0
2017-Jan-22 05:32N 58°56' E 005°35'0 0.0
2017-Jan-22 04:32N 58°56' E 005°35'0 0.0
2017-Jan-22 03:32N 58°56' E 005°35'0 0.0
2017-Jan-22 02:32N 58°56' E 005°35'0 0.0
2017-Jan-22 01:32N 58°56' E 005°35'0 0.0
2017-Jan-22 00:32N 58°56' E 005°35'0 0.0
2017-Jan-21 23:32N 58°56' E 005°35'0 0.0
2017-Jan-21 22:32N 58°56' E 005°35'0 0.0
2017-Jan-21 21:32N 58°56' E 005°35'0 0.0
2017-Jan-21 20:32N 58°56' E 005°35'0 0.0
2017-Jan-21 19:32N 58°56' E 005°35'0 0.0
2017-Jan-21 18:32N 58°56' E 005°35'0 0.0
2017-Jan-21 17:32N 58°56' E 005°35'0 0.0
2017-Jan-21 16:32N 58°56' E 005°35'0 0.0
2017-Jan-21 15:32N 58°56' E 005°35'0 0.0
2017-Jan-21 14:32N 58°56' E 005°35'0 0.0
2017-Jan-21 13:33N 58°56' E 005°35'0 0.1
2017-Jan-21 12:32N 58°56' E 005°36'0 0.0
2017-Jan-21 11:32N 58°56' E 005°36'0 0.0
2017-Jan-21 10:32N 58°56' E 005°36'0 0.0
2017-Jan-21 09:32N 58°56' E 005°36'0 0.0
2017-Jan-21 08:32N 58°56' E 005°36'0 0.0
2017-Jan-21 07:33N 58°56' E 005°36'8 8.0
2017-Jan-21 06:34N 59°03' E 005°32'9 9.1
2017-Jan-21 05:33N 59°10' E 005°20'211 6.9
2017-Jan-19 23:04N 62°39' E 006°24'4 7.8
2017-Jan-19 22:34N 62°42' E 006°29'9 8.7
2017-Jan-19 21:34N 62°50' E 006°39'10 8.9
2017-Jan-19 20:29N 62°58' E 006°51'7 8.1
2017-Jan-19 19:34N 63°01' E 007°06'8 8.5
2017-Jan-19 18:33N 63°04' E 007°23'8 8.2
2017-Jan-19 17:33N 63°08' E 007°39'4 3.6
2017-Jan-19 16:32N 63°06' E 007°47'0 0.0
2017-Jan-19 15:32N 63°06' E 007°47'0 0.0
2017-Jan-19 14:32N 63°06' E 007°47'0 0.0
2017-Jan-19 13:32N 63°06' E 007°47'0 0.0
2017-Jan-19 12:32N 63°06' E 007°47'0 0.0
2017-Jan-19 11:32N 63°06' E 007°47'0 0.0
2017-Jan-19 10:32N 63°06' E 007°47'0 0.0
2017-Jan-19 09:32N 63°06' E 007°47'0 0.0
2017-Jan-19 08:32N 63°06' E 007°47'0 0.0
2017-Jan-19 07:32N 63°06' E 007°47'0 0.0
2017-Jan-19 06:32N 63°06' E 007°47'0 0.0
2017-Jan-19 05:32N 63°06' E 007°47'0 0.0
2017-Jan-19 04:32N 63°06' E 007°47'0 0.0
2017-Jan-19 03:32N 63°06' E 007°47'0 0.0
2017-Jan-19 02:32N 63°06' E 007°47'3 2.9
2017-Jan-19 01:33N 63°07' E 007°41'1110.7
2017-Jan-19 00:34N 63°03' E 007°19'1211.6
2017-Jan-18 23:33N 62°59' E 006°55'1111.6
2017-Jan-18 22:33N 62°50' E 006°39'1211.4
2017-Jan-18 21:32N 62°40' E 006°26'178 8.5
2017-Jan-18 00:33N 59°44' E 005°29'1410.4
2017-Jan-17 23:15N 59°33' E 005°13'16 8.4
2017-Jan-17 21:22N 59°18' E 005°20'910.8
2017-Jan-17 20:33N 59°09' E 005°21'9 9.3
2017-Jan-17 19:34N 59°01' E 005°12'1010.3
2017-Jan-17 18:33N 58°53' E 004°59'1110.4
2017-Jan-17 17:32N 58°45' E 004°46'20910.8
2017-Jan-16 22:11N 57°32' W 001°25'711.2
2017-Jan-16 21:33N 57°29' W 001°37'5 5.4
2017-Jan-16 20:34N 57°30' W 001°47'0 0.0
2017-Jan-16 19:34N 57°30' W 001°47'0 0.0
2017-Jan-16 18:34N 57°30' W 001°47'0 0.0
2017-Jan-16 17:34N 57°30' W 001°47'0 0.0
2017-Jan-16 16:31N 57°30' W 001°47'0 0.0
2017-Jan-16 15:33N 57°30' W 001°47'6 5.6
2017-Jan-16 14:33N 57°29' W 001°37'210 9.5
2017-Jan-15 16:21N 58°41' E 004°37'810.1
2017-Jan-15 15:34N 58°44' E 004°52'1010.2
2017-Jan-15 14:34N 58°47' E 005°10'1010.2
2017-Jan-15 13:34N 58°51' E 005°28'6 5.1
2017-Jan-15 12:25N 58°55' E 005°36'0 0.0
2017-Jan-15 11:31N 58°55' E 005°36'0 0.0
2017-Jan-15 10:31N 58°55' E 005°36'0 0.0
2017-Jan-15 09:31N 58°55' E 005°36'0 0.0
2017-Jan-15 08:31N 58°55' E 005°36'0 0.0
2017-Jan-15 07:31N 58°55' E 005°36'0 0.0
2017-Jan-15 06:28N 58°55' E 005°36'0 0.0
2017-Jan-15 05:31N 58°55' E 005°36'0 0.0
2017-Jan-15 04:31N 58°55' E 005°36'0 0.0
2017-Jan-15 03:31N 58°55' E 005°36'0 0.0
2017-Jan-15 02:31N 58°55' E 005°36'0 0.0
2017-Jan-15 01:31N 58°55' E 005°36'0 0.0
2017-Jan-15 00:31N 58°55' E 005°36'0 0.0
2017-Jan-14 23:31N 58°55' E 005°36'0 0.0
2017-Jan-14 22:31N 58°55' E 005°36'0 0.0
2017-Jan-14 21:31N 58°55' E 005°36'0 0.0
2017-Jan-14 20:31N 58°55' E 005°36'0 0.3
2017-Jan-14 19:33N 58°56' E 005°36'0 0.0
2017-Jan-14 18:33N 58°56' E 005°36'0 0.0
2017-Jan-14 17:33N 58°56' E 005°36'0 0.0
2017-Jan-14 16:33N 58°56' E 005°36'0 0.0
2017-Jan-14 15:33N 58°56' E 005°36'0 0.0
2017-Jan-14 14:33N 58°56' E 005°36'0 0.0
2017-Jan-14 13:33N 58°56' E 005°36'0 0.4
2017-Jan-14 12:34N 58°55' E 005°35'6 6.5
2017-Jan-14 11:33N 59°02' E 005°38'7 6.8
2017-Jan-14 10:34N 58°57' E 005°47'4 4.0
2017-Jan-14 09:31N 58°53' E 005°45'0 0.0
2017-Jan-14 08:31N 58°53' E 005°45'0 0.0
2017-Jan-14 07:31N 58°53' E 005°45'0 0.0
2017-Jan-14 06:31N 58°53' E 005°45'0 0.0
2017-Jan-14 05:31N 58°53' E 005°45'0 0.0
2017-Jan-14 04:31N 58°53' E 005°45'0 0.0
2017-Jan-14 03:31N 58°53' E 005°45'  

Dump ship's entire track history